Time;durP1;ratioP1;P1;durP2;ratioP2;P2;SDS_P1;SDS_P2;PMS_P1;PMS_P2;Temp;Humidity;BMP_temperature;BMP_pressure;BME280_temperature;BME280_humidity;BME280_pressure;Samples;Min_cycle;Max_cycle;Signal;HPM_P1;HPM_P2
2021/03/22 00:00:03;;;;;;;22.30;11.53;;;;;;;-8.03;77.00;92168.96;1786432;80;21160;-72
2021/03/22 00:02:31;;;;;;;29.93;13.23;;;;;;;-8.13;77.12;92175.30;1792640;79;21134;-73
2021/03/22 00:04:59;;;;;;;12.80;7.20;;;;;;;-8.13;76.95;92165.53;1738073;81;21820;-73
2021/03/22 00:07:28;;;;;;;13.97;7.17;;;;;;;-8.15;77.75;92157.71;1772556;80;21701;-73
2021/03/22 00:09:57;;;;;;;9.90;6.20;;;;;;;-8.16;78.54;92166.17;1771382;80;21191;-72
2021/03/22 00:12:27;;;;;;;10.73;6.17;;;;;;;-8.17;78.48;92163.28;1791777;78;21136;-73
2021/03/22 00:14:55;;;;;;;11.37;6.67;;;;;;;-8.16;78.75;92171.97;1820476;78;21175;-73
2021/03/22 00:17:23;;;;;;;14.10;6.80;;;;;;;-8.16;78.96;92168.81;1792274;78;21357;-73
2021/03/22 00:19:52;;;;;;;11.40;6.60;;;;;;;-8.15;78.90;92165.63;1827511;77;21149;-73
2021/03/22 00:22:22;;;;;;;12.07;6.70;;;;;;;-8.13;79.52;92157.61;1812547;78;21183;-73
2021/03/22 00:24:50;;;;;;;9.07;5.53;;;;;;;-8.10;79.37;92158.86;1784594;79;21230;-73
2021/03/22 00:27:17;;;;;;;16.43;7.97;;;;;;;-8.07;79.32;92157.70;1821616;78;21070;-73
2021/03/22 00:29:45;;;;;;;9.80;5.77;;;;;;;-8.12;78.76;92161.83;1766220;78;21168;-73
2021/03/22 00:32:12;;;;;;;11.53;6.83;;;;;;;-8.15;78.20;92165.63;1829436;76;21526;-72
2021/03/22 00:34:42;;;;;;;13.53;6.90;;;;;;;-8.27;78.88;92149.09;1788160;78;21179;-72
2021/03/22 00:37:09;;;;;;;9.13;5.90;;;;;;;-8.31;79.62;92152.13;1796474;78;21112;-73
2021/03/22 00:39:37;;;;;;;10.77;6.57;;;;;;;-8.22;79.50;92146.84;1816302;79;21023;-73
2021/03/22 00:42:18;;;;;;;13.80;7.43;;;;;;;-8.18;79.21;92138.00;1781674;80;21659;-73
2021/03/22 00:44:46;;;;;;;12.20;6.80;;;;;;;-8.23;78.80;92134.20;1751169;79;21093;-73
2021/03/22 00:47:14;;;;;;;8.77;4.90;;;;;;;-8.28;78.53;92124.34;1809427;78;21103;-73
2021/03/22 00:49:42;;;;;;;13.40;7.37;;;;;;;-8.36;78.55;92120.61;1779830;79;21139;-73
2021/03/22 00:52:11;;;;;;;13.20;7.07;;;;;;;-8.49;78.98;92122.89;1769320;81;21044;-73
2021/03/22 00:54:41;;;;;;;31.47;16.20;;;;;;;-8.52;79.27;92127.45;1767431;81;21546;-72
2021/03/22 00:57:09;;;;;;;24.50;12.47;;;;;;;-8.49;78.56;92129.48;1768322;81;21129;-73
2021/03/22 00:59:37;;;;;;;33.57;16.40;;;;;;;-8.50;78.44;92131.32;1818011;78;21717;-73
2021/03/22 01:02:05;;;;;;;37.67;18.23;;;;;;;-8.46;78.42;92132.80;1801400;78;21186;-73
2021/03/22 01:04:33;;;;;;;49.77;22.63;;;;;;;-8.46;77.91;92127.52;1763228;81;21183;-72
2021/03/22 01:07:01;;;;;;;39.90;19.80;;;;;;;-8.51;76.97;92136.91;1773502;78;21763;-72
2021/03/22 01:09:28;;;;;;;42.80;19.50;;;;;;;-8.61;76.75;92125.59;1832506;77;21164;-72
2021/03/22 01:11:56;;;;;;;50.50;22.30;;;;;;;-8.70;76.72;92120.83;1754696;77;21150;-72
2021/03/22 01:14:24;;;;;;;42.93;19.57;;;;;;;-8.75;76.73;92121.53;1787608;78;21645;-73
2021/03/22 01:16:52;;;;;;;45.03;19.30;;;;;;;-8.81;76.49;92122.20;1793731;77;21124;-72
2021/03/22 01:19:24;;;;;;;38.57;17.57;;;;;;;-8.86;76.65;92117.86;1769447;78;21256;-72
2021/03/22 01:21:56;;;;;;;33.83;15.97;;;;;;;-8.91;76.93;92114.58;1831441;78;21577;-71
2021/03/22 01:24:26;;;;;;;39.00;17.53;;;;;;;-8.92;77.10;92111.17;1750606;82;21120;-72
2021/03/22 01:26:56;;;;;;;37.47;16.57;;;;;;;-8.94;76.91;92105.45;1822456;78;21174;-72
2021/03/22 01:29:35;;;;;;;20.03;9.97;;;;;;;-8.98;77.05;92103.73;1798248;78;21573;-71
2021/03/22 01:32:10;;;;;;;39.53;17.60;;;;;;;-8.98;77.57;92104.52;1807212;77;21370;-71
2021/03/22 01:34:38;;;;;;;26.07;13.87;;;;;;;-8.97;77.69;92103.97;1815724;78;21151;-72
2021/03/22 01:37:06;;;;;;;37.43;17.93;;;;;;;-8.99;77.49;92100.30;1771705;78;21546;-72
2021/03/22 01:39:36;;;;;;;23.67;12.30;;;;;;;-9.07;77.48;92100.52;1833693;78;21135;-72
2021/03/22 01:42:34;;;;;;;30.43;15.30;;;;;;;-9.08;77.75;92100.84;1756847;78;21678;-71
2021/03/22 01:45:06;;;;;;;19.90;11.27;;;;;;;-9.05;78.46;92101.55;1824281;78;21582;-72
2021/03/22 01:47:36;;;;;;;14.53;8.70;;;;;;;-9.10;77.89;92100.35;1774722;78;21148;-72
2021/03/22 01:50:17;;;;;;;12.50;7.27;;;;;;;-9.20;77.83;92101.42;1790233;78;21132;-71
2021/03/22 01:52:46;;;;;;;15.83;9.03;;;;;;;-9.27;78.58;92093.73;1805483;78;21187;-73
2021/03/22 01:55:15;;;;;;;26.33;13.07;;;;;;;-9.34;78.91;92080.45;1758939;78;21128;-72
2021/03/22 01:57:44;;;;;;;27.90;12.40;;;;;;;-9.30;79.27;92077.99;1833792;78;22480;-73
2021/03/22 02:00:29;;;;;;;23.50;11.90;;;;;;;-9.25;79.04;92086.29;1755367;78;21180;-73
2021/03/22 02:03:11;;;;;;;33.02;16.40;;;;;;;-9.23;78.98;92076.24;1817343;78;21025;-73
2021/03/22 02:05:41;;;;;;;29.43;14.97;;;;;;;-9.20;78.86;92079.04;1776890;78;21077;-72
2021/03/22 02:08:14;;;;;;;30.90;15.80;;;;;;;-9.13;78.78;92072.79;1787877;78;21112;-73
2021/03/22 02:10:43;;;;;;;27.13;11.90;;;;;;;-9.05;78.50;92081.25;1793938;79;22322;-71
2021/03/22 02:13:16;;;;;;;28.67;13.57;;;;;;;-9.02;78.14;92075.92;1767538;80;21167;-73
2021/03/22 02:15:46;;;;;;;30.83;15.77;;;;;;;-9.04;78.06;92079.39;1767808;80;21157;-74
2021/03/22 02:18:27;;;;;;;26.27;12.80;;;;;;;-9.04;78.14;92074.12;1770153;81;21143;-74
2021/03/22 02:21:03;;;;;;;28.33;14.23;;;;;;;-9.05;78.27;92075.20;1830727;77;21733;-73
2021/03/22 02:24:11;;;;;;;23.40;11.83;;;;;;;-9.08;78.00;92070.00;1769315;77;21799;-74
2021/03/22 02:27:32;;;;;;;23.20;12.03;;;;;;;-9.07;78.64;92070.23;1801104;78;21099;-73
2021/03/22 02:30:39;;;;;;;28.23;13.70;;;;;;;-9.02;78.18;92064.61;1783265;77;21166;-72
2021/03/22 02:33:10;;;;;;;26.17;12.13;;;;;;;-9.03;77.82;92059.09;1757907;81;21657;-73
2021/03/22 02:35:56;;;;;;;26.93;13.13;;;;;;;-9.03;78.00;92063.03;1777474;80;21172;-73
2021/03/22 02:38:28;;;;;;;26.97;14.80;;;;;;;-8.99;77.96;92052.12;1776001;80;21816;-72
2021/03/22 02:41:04;;;;;;;29.57;13.50;;;;;;;-8.96;77.62;92055.46;1824763;77;21200;-73
2021/03/22 02:43:34;;;;;;;29.43;14.60;;;;;;;-8.97;77.53;92048.10;1808428;77;21143;-72
2021/03/22 02:46:01;;;;;;;31.70;16.53;;;;;;;-8.97;77.33;92050.73;1777367;80;21140;-73
2021/03/22 02:48:31;;;;;;;27.73;13.83;;;;;;;-9.03;76.98;92035.38;1777091;80;21056;-72
2021/03/22 02:51:09;;;;;;;30.33;15.80;;;;;;;-9.10;77.23;92041.89;1777241;80;21487;-72
2021/03/22 02:54:19;;;;;;;24.07;13.67;;;;;;;-9.12;77.33;92028.79;1777181;80;21120;-73
2021/03/22 02:56:54;;;;;;;28.87;13.93;;;;;;;-9.11;77.30;92025.84;1777175;80;21582;-72
2021/03/22 02:59:28;;;;;;;29.75;13.38;;;;;;;-9.14;77.10;92036.20;1777055;79;21167;-73
2021/03/22 03:02:04;;;;;;;32.83;16.40;;;;;;;-9.17;77.04;92040.80;1788261;77;21133;-73
2021/03/22 03:04:36;;;;;;;31.80;15.93;;;;;;;-9.23;76.93;92032.80;1812643;77;21357;-72
2021/03/22 03:07:07;;;;;;;32.70;15.37;;;;;;;-9.29;77.40;92040.05;1776965;80;21123;-72
2021/03/22 03:09:38;;;;;;;37.77;16.23;;;;;;;-9.32;77.30;92038.82;1777133;80;21184;-72
2021/03/22 03:12:17;;;;;;;27.00;13.30;;;;;;;-9.35;77.47;92036.80;1745929;80;21152;-71
2021/03/22 03:14:48;;;;;;;33.97;14.97;;;;;;;-9.31;77.57;92044.86;1840476;77;21122;-72
2021/03/22 03:17:16;;;;;;;25.03;12.97;;;;;;;-9.30;77.69;92049.80;1793509;77;21358;-73
2021/03/22 03:19:44;;;;;;;32.67;15.10;;;;;;;-9.25;77.80;92046.28;1777235;80;21578;-71
2021/03/22 03:22:12;;;;;;;29.47;13.57;;;;;;;-9.21;77.08;92053.00;1797904;77;21105;-72
2021/03/22 03:24:40;;;;;;;26.57;14.20;;;;;;;-9.24;77.21;92050.45;1841714;77;21117;-71
2021/03/22 03:27:09;;;;;;;24.90;12.77;;;;;;;-9.25;77.19;92057.33;1796083;79;21153;-72
2021/03/22 03:29:37;;;;;;;30.30;12.90;;;;;;;-9.30;76.93;92048.48;1794108;79;22191;-74
2021/03/22 03:32:07;;;;;;;26.97;12.80;;;;;;;-9.31;77.18;92050.13;1834064;77;21154;-71
2021/03/22 03:34:34;;;;;;;25.57;12.33;;;;;;;-9.31;77.46;92051.44;1826403;77;21122;-71
2021/03/22 03:37:02;;;;;;;21.07;10.67;;;;;;;-9.27;77.57;92045.02;1807012;77;21040;-73
2021/03/22 03:39:30;;;;;;;22.13;10.57;;;;;;;-9.24;77.85;92045.19;1849523;77;21467;-71
2021/03/22 03:41:57;;;;;;;27.57;13.30;;;;;;;-9.22;77.82;92045.64;1798441;77;21578;-71
2021/03/22 03:44:25;;;;;;;24.03;11.33;;;;;;;-9.25;77.54;92050.74;1835628;76;21115;-71
2021/03/22 03:46:52;;;;;;;31.00;13.50;;;;;;;-9.26;77.49;92048.66;1830139;77;21185;-71
2021/03/22 03:49:20;;;;;;;28.80;12.73;;;;;;;-9.31;77.50;92044.86;1823577;76;21665;-73
2021/03/22 03:51:48;;;;;;;27.67;13.20;;;;;;;-9.28;77.90;92038.21;1845563;77;21624;-71
2021/03/22 03:54:15;;;;;;;30.67;14.57;;;;;;;-9.24;77.85;92043.09;1797106;79;21632;-71
2021/03/22 03:56:43;;;;;;;39.67;19.77;;;;;;;-9.20;77.80;92046.67;1840263;77;21127;-71
2021/03/22 03:59:10;;;;;;;29.17;13.87;;;;;;;-9.15;77.54;92041.25;1817054;77;21565;-71
2021/03/22 04:01:38;;;;;;;30.17;14.83;;;;;;;-9.11;77.52;92041.64;1816619;77;21053;-71
2021/03/22 04:04:05;;;;;;;24.93;12.67;;;;;;;-9.10;77.46;92035.83;1840789;77;21769;-72
2021/03/22 04:06:34;;;;;;;23.30;13.17;;;;;;;-9.06;77.48;92046.02;1797614;79;21638;-71
2021/03/22 04:09:09;;;;;;;24.23;12.50;;;;;;;-9.05;77.36;92045.69;1846296;76;21044;-72
2021/03/22 04:11:40;;;;;;;26.40;13.27;;;;;;;-9.04;77.17;92049.09;1821814;77;21140;-71
2021/03/22 04:14:08;;;;;;;26.33;14.23;;;;;;;-9.05;77.15;92048.87;1808271;79;21146;-71
2021/03/22 04:16:37;;;;;;;28.03;14.57;;;;;;;-9.06;77.13;92045.46;1804443;78;21164;-71
2021/03/22 04:19:04;;;;;;;26.90;13.20;;;;;;;-9.03;76.96;92047.23;1804187;79;21714;-71
2021/03/22 04:21:32;;;;;;;23.23;12.43;;;;;;;-9.05;76.88;92048.33;1804314;79;21579;-71
2021/03/22 04:24:01;;;;;;;32.13;16.33;;;;;;;-9.09;76.86;92045.30;1804401;79;21066;-71
2021/03/22 04:26:28;;;;;;;26.27;13.83;;;;;;;-9.12;77.07;92046.68;1804314;79;21066;-72
2021/03/22 04:28:57;;;;;;;31.53;14.87;;;;;;;-9.09;77.36;92040.03;1793854;79;21142;-72
2021/03/22 04:31:26;;;;;;;29.90;15.33;;;;;;;-9.04;77.50;92045.14;1780742;79;22254;-71
2021/03/22 04:33:55;;;;;;;28.07;14.20;;;;;;;-9.00;77.46;92043.99;1781091;80;21125;-72
2021/03/22 04:36:29;;;;;;;34.47;14.33;;;;;;;-8.95;77.34;92051.22;1849562;77;21119;-72
2021/03/22 04:38:56;;;;;;;38.70;17.30;;;;;;;-8.92;77.30;92063.75;1819390;77;21528;-72
2021/03/22 04:41:24;;;;;;;33.97;14.97;;;;;;;-8.88;77.11;92058.64;1834519;76;21104;-72
2021/03/22 04:43:52;;;;;;;30.50;15.90;;;;;;;-8.82;76.99;92054.79;1829311;77;21731;-72
2021/03/22 04:46:20;;;;;;;34.50;16.73;;;;;;;-8.77;76.93;92057.27;1804381;77;21463;-72
2021/03/22 04:48:50;;;;;;;30.07;15.43;;;;;;;-8.71;76.91;92059.99;1846776;77;21064;-71
2021/03/22 04:51:17;;;;;;;28.80;13.57;;;;;;;-8.68;76.93;92062.56;1800051;77;21118;-71
2021/03/22 04:53:45;;;;;;;27.60;14.50;;;;;;;-8.67;77.15;92062.78;1833426;77;21610;-71
2021/03/22 04:56:14;;;;;;;32.73;17.13;;;;;;;-8.67;77.28;92058.29;1831406;77;21141;-71
2021/03/22 04:58:41;;;;;;;27.17;14.30;;;;;;;-8.61;77.35;92060.25;1809662;79;21283;-71
2021/03/22 05:01:09;;;;;;;32.63;17.90;;;;;;;-8.53;77.23;92066.05;1803626;79;21138;-71
2021/03/22 05:03:37;;;;;;;28.33;16.30;;;;;;;-8.45;77.15;92056.05;1781901;80;21152;-72
2021/03/22 05:06:05;;;;;;;28.27;15.50;;;;;;;-8.37;77.05;92053.18;1834771;77;21158;-72
2021/03/22 05:08:32;;;;;;;39.10;18.67;;;;;;;-8.26;76.96;92064.16;1817284;77;21373;-72
2021/03/22 05:11:01;;;;;;;46.40;20.87;;;;;;;-8.24;76.50;92064.61;1813915;77;21198;-71
2021/03/22 05:13:30;;;;;;;42.77;20.43;;;;;;;-8.20;76.46;92068.17;1840573;77;21385;-71
2021/03/22 05:15:58;;;;;;;42.87;20.20;;;;;;;-8.16;76.54;92064.63;1797285;79;21082;-71
2021/03/22 05:18:27;;;;;;;48.77;22.17;;;;;;;-8.08;76.34;92059.87;1844894;77;21138;-72
2021/03/22 05:20:59;;;;;;;57.87;27.30;;;;;;;-8.02;76.15;92059.15;1811957;77;21193;-72
2021/03/22 05:23:27;;;;;;;61.03;27.50;;;;;;;-7.98;75.92;92056.66;1822532;77;21755;-71
2021/03/22 05:25:55;;;;;;;47.73;22.03;;;;;;;-7.96;75.63;92063.73;1838563;77;21113;-72
2021/03/22 05:28:25;;;;;;;41.27;19.30;;;;;;;-7.93;75.27;92060.48;1815397;77;21591;-71
2021/03/22 05:30:53;;;;;;;44.57;21.83;;;;;;;-7.95;75.15;92063.95;1848734;77;21138;-72
2021/03/22 05:33:21;;;;;;;36.80;18.13;;;;;;;-7.97;75.26;92067.44;1804644;77;21348;-71
2021/03/22 05:35:52;;;;;;;41.87;20.57;;;;;;;-7.96;75.29;92061.87;1829564;77;21535;-71
2021/03/22 05:38:19;;;;;;;50.73;25.20;;;;;;;-7.92;75.33;92069.39;1826995;77;21134;-71
2021/03/22 05:41:18;;;;;;;51.10;22.40;;;;;;;-7.88;75.14;92074.81;1806923;77;21134;-71
2021/03/22 05:44:06;;;;;;;43.73;22.37;;;;;;;-7.86;75.24;92071.30;1803118;79;21048;-71
2021/03/22 05:46:42;;;;;;;40.37;21.77;;;;;;;-7.77;75.34;92070.75;1813760;77;21718;-72
2021/03/22 05:49:23;;;;;;;40.93;20.13;;;;;;;-7.66;75.31;92075.16;1813568;79;21210;-71
2021/03/22 05:52:24;;;;;;;37.53;19.30;;;;;;;-7.55;75.12;92063.72;1869090;76;21499;-72
2021/03/22 05:55:11;;;;;;;39.60;19.73;;;;;;;-7.46;74.91;92069.73;1804273;79;21060;-71
2021/03/22 05:57:46;;;;;;;37.70;19.67;;;;;;;-7.37;74.35;92071.26;1813585;78;21135;-72
2021/03/22 06:00:39;;;;;;;38.23;18.80;;;;;;;-7.29;74.50;92069.67;1828514;78;22288;-72
2021/03/22 06:03:19;;;;;;;45.57;22.60;;;;;;;-7.19;74.28;92079.09;1872856;75;21132;-72
2021/03/22 06:05:52;;;;;;;31.93;16.73;;;;;;;-7.11;74.12;92084.36;1872781;75;21088;-72
2021/03/22 06:08:43;;;;;;;49.50;25.33;;;;;;;-7.00;73.85;92080.79;1843486;77;21093;-71
2021/03/22 06:11:36;;;;;;;51.70;23.90;;;;;;;-6.94;73.90;92074.79;1805864;79;21075;-72
2021/03/22 06:14:25;;;;;;;43.43;22.47;;;;;;;-6.79;73.93;92076.11;1842002;77;21472;-71
2021/03/22 06:17:07;;;;;;;49.50;24.43;;;;;;;-6.64;73.61;92084.80;1817044;78;21301;-71
2021/03/22 06:19:42;;;;;;;43.28;22.07;;;;;;;-6.48;73.61;92077.07;1822157;77;21111;-70
2021/03/22 06:22:20;;;;;;;45.37;21.27;;;;;;;-6.26;73.66;92078.62;1798256;78;21134;-72
2021/03/22 06:24:48;;;;;;;44.27;23.43;;;;;;;-6.01;73.60;92071.03;1859073;75;21182;-72
2021/03/22 06:27:16;;;;;;;41.10;20.90;;;;;;;-5.65;73.18;92077.52;1864343;75;21587;-71
2021/03/22 06:29:44;;;;;;;42.17;22.57;;;;;;;-5.29;72.50;92080.80;1835770;77;21087;-71
2021/03/22 06:32:30;;;;;;;46.97;25.30;;;;;;;-4.94;71.10;92075.86;1805217;79;21140;-71
2021/03/22 06:35:02;;;;;;;44.37;25.13;;;;;;;-4.69;69.71;92070.00;1824658;77;21341;-70
2021/03/22 06:37:36;;;;;;;45.37;25.17;;;;;;;-4.43;69.40;92076.28;1836182;78;21571;-70
2021/03/22 06:40:30;;;;;;;45.60;24.07;;;;;;;-4.21;68.60;92088.85;1796998;79;22374;-70
2021/03/22 06:43:12;;;;;;;42.27;23.57;;;;;;;-4.06;67.75;92090.80;1860468;77;21151;-71
2021/03/22 06:45:54;;;;;;;39.40;22.20;;;;;;;-3.94;67.36;92090.76;1808460;77;21118;-71
2021/03/22 06:48:31;;;;;;;42.17;22.33;;;;;;;-3.83;66.79;92079.11;1822810;78;21135;-70
2021/03/22 06:51:11;;;;;;;45.30;21.40;;;;;;;-3.78;66.06;92090.81;1841018;76;21104;-70
2021/03/22 06:53:58;;;;;;;35.23;20.43;;;;;;;-3.76;65.79;92084.62;1856042;76;21186;-70
2021/03/22 06:56:40;;;;;;;41.93;21.50;;;;;;;-3.71;65.56;92084.92;1817137;78;21497;-71
2021/03/22 06:59:21;;;;;;;34.63;18.17;;;;;;;-3.64;65.77;92081.70;1874728;76;21048;-72
2021/03/22 07:01:50;;;;;;;35.58;18.75;;;;;;;-3.52;65.54;92079.75;1869050;76;21594;-71
2021/03/22 07:04:26;;;;;;;37.03;20.60;;;;;;;-3.28;65.55;92084.70;1797825;79;21179;-71
2021/03/22 07:07:23;;;;;;;29.30;18.17;;;;;;;-3.02;65.58;92084.22;1814141;79;21196;-70
2021/03/22 07:09:59;;;;;;;32.40;17.53;;;;;;;-2.69;65.39;92083.31;1872322;76;21088;-70
2021/03/22 07:12:40;;;;;;;31.40;17.97;;;;;;;-2.31;65.12;92079.23;1837071;76;21120;-70
2021/03/22 07:15:36;;;;;;;28.70;17.47;;;;;;;-1.96;64.30;92077.90;1827768;76;21626;-70
2021/03/22 07:18:18;;;;;;;20.57;12.53;;;;;;;-1.65;63.30;92076.22;1847903;76;21052;-72
2021/03/22 07:21:04;;;;;;;18.03;11.27;;;;;;;-1.29;61.96;92077.65;1800787;78;21594;-70
2021/03/22 07:23:49;;;;;;;18.40;11.97;;;;;;;-0.91;61.17;92076.59;1834947;77;21130;-72
2021/03/22 07:26:39;;;;;;;43.40;14.00;;;;;;;-0.64;60.44;92074.20;1823796;78;21243;-72
2021/03/22 07:29:38;;;;;;;18.62;12.90;;;;;;;-0.43;59.79;92072.98;1795058;79;37935;-71
2021/03/22 07:32:11;;;;;;;24.60;14.40;;;;;;;-0.22;58.62;92078.64;1830524;76;21416;-70
2021/03/22 07:34:56;;;;;;;22.70;14.65;;;;;;;-0.17;58.29;92070.30;1821747;78;21543;-72
2021/03/22 07:37:53;;;;;;;24.18;14.78;;;;;;;-0.13;58.30;92073.03;1798651;79;22068;-69
2021/03/22 07:40:56;;;;;;;18.00;12.10;;;;;;;-0.03;57.54;92081.77;1779473;78;21371;-71
2021/03/22 07:44:01;;;;;;;24.65;15.68;;;;;;;0.08;57.49;92080.02;1819840;78;21167;-69
2021/03/22 07:47:03;;;;;;;17.35;11.33;;;;;;;0.17;57.62;92075.16;1841580;77;21182;-70
2021/03/22 07:49:56;;;;;;;17.30;10.55;;;;;;;0.33;57.45;92084.33;1775934;80;21368;-71
2021/03/22 07:52:33;;;;;;;13.85;8.78;;;;;;;0.38;57.08;92085.94;1821965;78;21068;-71
2021/03/22 07:55:28;;;;;;;11.65;8.23;;;;;;;0.41;57.27;92087.28;1814144;77;21149;-72
2021/03/22 07:58:17;;;;;;;11.68;7.45;;;;;;;0.44;57.19;92089.81;1817266;77;21037;-70
2021/03/22 08:01:13;;;;;;;12.13;7.65;;;;;;;0.44;57.43;92087.13;1756208;81;21577;-72
2021/03/22 08:04:20;;;;;;;10.25;6.97;;;;;;;0.38;58.02;92089.37;1843039;76;22347;-70
2021/03/22 08:07:26;;;;;;;13.50;7.95;;;;;;;0.37;58.26;92099.84;1822309;76;21164;-70
2021/03/22 08:10:20;;;;;;;11.55;7.58;;;;;;;0.37;59.27;92096.41;1782118;80;21080;-70
2021/03/22 08:13:38;;;;;;;10.28;7.35;;;;;;;0.33;59.77;92099.03;1804199;77;21190;-70
2021/03/22 08:16:26;;;;;;;11.97;8.60;;;;;;;0.28;59.78;92102.60;1830802;77;21056;-70
2021/03/22 08:19:08;;;;;;;12.95;8.60;;;;;;;0.20;59.61;92101.73;1798289;77;22369;-71
2021/03/22 08:21:58;;;;;;;17.85;11.93;;;;;;;0.14;59.28;92107.95;1780453;79;21086;-71
2021/03/22 08:24:50;;;;;;;16.05;10.28;;;;;;;0.09;59.52;92104.27;1787880;78;21630;-70
2021/03/22 08:27:24;;;;;;;17.57;11.28;;;;;;;0.06;60.15;92106.31;1753032;78;21170;-72
2021/03/22 08:30:06;;;;;;;14.65;8.95;;;;;;;0.08;61.19;92113.42;1761598;80;21131;-71
2021/03/22 08:32:42;;;;;;;14.70;9.80;;;;;;;0.11;60.98;92111.34;1786036;80;21203;-71
2021/03/22 08:35:19;;;;;;;14.83;10.08;;;;;;;0.03;61.03;92110.27;1803521;79;21555;-71
2021/03/22 08:38:09;;;;;;;12.55;9.15;;;;;;;-0.06;62.10;92107.30;1812499;79;21202;-71
2021/03/22 08:40:53;;;;;;;11.08;7.90;;;;;;;-0.02;62.46;92110.03;1872820;76;21044;-72
2021/03/22 08:43:46;;;;;;;16.60;10.80;;;;;;;0.00;63.30;92103.77;1837892;76;21119;-71
2021/03/22 08:46:46;;;;;;;13.85;8.90;;;;;;;0.02;64.14;92106.06;1796016;78;21557;-71
2021/03/22 08:49:22;;;;;;;12.47;7.45;;;;;;;0.03;64.54;92101.69;1851985;77;21076;-70
2021/03/22 08:51:53;;;;;;;11.33;7.60;;;;;;;0.05;65.19;92104.78;1854869;77;21127;-70
2021/03/22 08:54:32;;;;;;;13.62;8.98;;;;;;;0.05;65.51;92109.36;1855593;77;21103;-72
2021/03/22 08:57:08;;;;;;;13.15;8.85;;;;;;;0.03;65.75;92104.93;1853194;77;21089;-72
2021/03/22 08:59:35;;;;;;;14.15;11.22;;;;;;;0.00;65.86;92106.44;1843457;77;21332;-71
2021/03/22 09:02:19;;;;;;;14.25;9.23;;;;;;;-0.03;66.21;92105.25;1831198;78;21120;-71
2021/03/22 09:04:49;;;;;;;17.15;9.95;;;;;;;-0.04;66.33;92118.95;1791467;79;21176;-70
2021/03/22 09:07:22;;;;;;;14.85;9.85;;;;;;;-0.05;66.96;92116.09;1773765;79;21064;-72
2021/03/22 09:09:50;;;;;;;13.93;9.65;;;;;;;-0.06;67.18;92122.00;1798541;79;21124;-70
2021/03/22 09:12:43;;;;;;;14.40;9.85;;;;;;;-0.09;67.70;92132.63;1834697;76;21312;-70
2021/03/22 09:15:32;;;;;;;17.48;10.80;;;;;;;-0.14;68.04;92131.05;1862422;76;21116;-71
2021/03/22 09:18:06;;;;;;;14.78;9.80;;;;;;;-0.18;68.38;92131.56;1795722;76;21024;-72
2021/03/22 09:20:36;;;;;;;15.10;10.13;;;;;;;-0.25;68.85;92131.45;1906012;75;21123;-72
2021/03/22 09:23:04;;;;;;;37.88;14.23;;;;;;;-0.32;69.14;92132.67;1827544;77;21148;-71
2021/03/22 09:25:53;;;;;;;13.50;9.45;;;;;;;-0.36;69.62;92139.29;1860040;76;21754;-72
2021/03/22 09:28:31;;;;;;;18.62;12.53;;;;;;;-0.38;69.83;92138.09;1873013;76;21175;-71
2021/03/22 09:31:17;;;;;;;17.65;11.90;;;;;;;-0.45;70.44;92148.13;1830617;76;21101;-72
2021/03/22 09:34:02;;;;;;;22.02;13.60;;;;;;;-0.49;71.07;92151.27;1813876;76;21483;-71
2021/03/22 09:36:46;;;;;;;20.50;12.37;;;;;;;-0.46;71.72;92150.56;1864155;76;21115;-71
2021/03/22 09:39:22;;;;;;;18.98;12.95;;;;;;;-0.42;72.08;92147.39;1811057;79;21655;-71
2021/03/22 09:42:14;;;;;;;18.05;11.63;;;;;;;-0.37;72.14;92149.01;1781408;79;21551;-70
2021/03/22 09:44:44;;;;;;;13.50;9.08;;;;;;;-0.35;72.36;92154.18;1773256;79;21574;-71
2021/03/22 09:47:18;;;;;;;16.07;11.05;;;;;;;-0.30;72.42;92145.89;1873968;76;21033;-72
2021/03/22 09:50:07;;;;;;;19.12;11.93;;;;;;;-0.28;72.65;92154.30;1808481;76;21058;-71
2021/03/22 09:52:41;;;;;;;16.07;10.98;;;;;;;-0.21;72.48;92154.22;1849980;76;21199;-71
2021/03/22 09:55:31;;;;;;;17.50;12.03;;;;;;;-0.16;72.67;92155.23;1828138;78;21171;-71
2021/03/22 09:58:19;;;;;;;23.30;15.43;;;;;;;-0.14;72.60;92159.67;1809051;77;21152;-72
2021/03/22 10:00:57;;;;;;;16.15;10.15;;;;;;;-0.15;72.89;92160.23;1801797;79;21056;-71
2021/03/22 10:03:35;;;;;;;17.73;11.73;;;;;;;-0.11;72.09;92161.62;1807229;77;21075;-71
2021/03/22 10:06:08;;;;;;;15.72;9.98;;;;;;;-0.08;71.94;92163.56;1865057;76;21794;-72
2021/03/22 10:08:38;;;;;;;10.45;7.08;;;;;;;-0.08;71.37;92157.66;1803755;79;21167;-72
2021/03/22 10:11:30;;;;;;;7.05;5.12;;;;;;;-0.19;70.92;92166.63;1781830;79;21506;-72
2021/03/22 10:14:01;;;;;;;6.00;4.58;;;;;;;-0.26;70.48;92165.41;1863811;76;21115;-72
2021/03/22 10:16:37;;;;;;;6.75;5.55;;;;;;;-0.22;70.31;92169.48;1828855;76;21163;-71
2021/03/22 10:19:26;;;;;;;5.60;4.58;;;;;;;-0.25;70.19;92174.20;1824034;76;21196;-71
2021/03/22 10:21:58;;;;;;;7.47;4.70;;;;;;;-0.26;70.34;92178.77;1846699;76;21479;-72
2021/03/22 10:24:48;;;;;;;7.62;5.28;;;;;;;-0.25;70.89;92177.63;1796299;76;21583;-72
2021/03/22 10:27:33;;;;;;;6.08;4.20;;;;;;;-0.25;70.81;92177.63;1865453;76;21025;-73
2021/03/22 10:30:15;;;;;;;4.80;4.10;;;;;;;-0.27;70.97;92178.54;1803209;78;21129;-72
2021/03/22 10:33:01;;;;;;;4.95;4.42;;;;;;;-0.43;70.34;92173.89;1833737;77;21621;-71
2021/03/22 10:35:39;;;;;;;4.58;4.15;;;;;;;-0.54;70.20;92191.06;1875368;76;21082;-70
2021/03/22 10:38:09;;;;;;;5.65;4.42;;;;;;;-0.55;71.29;92186.86;1849256;75;21056;-71
2021/03/22 10:40:38;;;;;;;6.40;4.53;;;;;;;-0.57;71.68;92194.44;1785556;77;21052;-72
2021/03/22 10:43:07;;;;;;;4.28;3.72;;;;;;;-0.61;71.62;92196.84;1854539;77;21056;-72
2021/03/22 10:45:42;;;;;;;4.47;4.05;;;;;;;-0.55;71.82;92200.78;1824841;78;22030;-72
2021/03/22 10:48:33;;;;;;;5.65;3.98;;;;;;;-0.50;71.91;92201.81;1840721;78;21590;-72
2021/03/22 10:51:06;;;;;;;6.47;4.70;;;;;;;-0.45;71.88;92197.53;1798484;79;21093;-72
2021/03/22 10:53:33;;;;;;;5.37;4.47;;;;;;;-0.39;72.38;92202.77;1796320;79;21151;-73
2021/03/22 10:56:20;;;;;;;5.53;3.58;;;;;;;-0.33;72.54;92202.69;1862121;76;21546;-72
2021/03/22 10:58:47;;;;;;;6.30;4.20;;;;;;;-0.26;72.17;92209.49;1828045;76;21342;-72
2021/03/22 11:01:17;;;;;;;4.30;3.90;;;;;;;-0.18;72.12;92202.94;1829877;76;21116;-72
2021/03/22 11:03:48;;;;;;;5.92;4.53;;;;;;;-0.12;71.48;92206.83;1863510;76;21084;-72
2021/03/22 11:06:17;;;;;;;6.85;5.20;;;;;;;-0.19;70.73;92206.71;1791231;76;21192;-72
2021/03/22 11:08:47;;;;;;;4.83;3.70;;;;;;;-0.21;70.93;92195.06;1879360;76;21526;-72
2021/03/22 11:11:17;;;;;;;5.55;3.85;;;;;;;-0.14;70.70;92197.08;1828455;77;22080;-71
2021/03/22 11:13:48;;;;;;;6.30;4.47;;;;;;;-0.04;69.97;92187.90;1849397;77;21122;-71
2021/03/22 11:16:32;;;;;;;6.08;4.20;;;;;;;0.07;70.60;92186.70;1824117;78;21005;-73
2021/03/22 11:19:27;;;;;;;5.35;4.33;;;;;;;0.19;69.92;92177.16;1829348;75;21115;-72
2021/03/22 11:21:57;;;;;;;5.42;4.30;;;;;;;0.22;69.71;92184.44;1891384;75;21443;-72
2021/03/22 11:24:41;;;;;;;4.95;3.75;;;;;;;0.26;68.85;92183.73;1838333;78;21199;-72
2021/03/22 11:27:11;;;;;;;6.00;3.80;;;;;;;0.33;68.88;92186.51;1807358;79;21172;-72
2021/03/22 11:30:00;;;;;;;4.95;3.98;;;;;;;0.42;67.08;92181.11;1807210;79;21469;-72
2021/03/22 11:32:31;;;;;;;4.22;3.70;;;;;;;0.47;67.56;92183.47;1806681;79;21171;-72
2021/03/22 11:34:59;;;;;;;6.45;5.22;;;;;;;0.46;67.93;92185.17;1854673;76;21163;-71
2021/03/22 11:37:31;;;;;;;6.00;4.80;;;;;;;0.42;68.54;92196.39;1839892;76;22498;-71
2021/03/22 11:40:19;;;;;;;4.97;3.98;;;;;;;0.45;69.37;92190.30;1790521;78;21159;-71
2021/03/22 11:42:58;;;;;;;5.35;3.72;;;;;;;0.48;69.41;92186.34;1869511;75;21079;-73
2021/03/22 11:45:39;;;;;;;4.37;3.77;;;;;;;0.45;69.00;92181.73;1842609;78;21041;-73
2021/03/22 11:48:22;;;;;;;4.30;3.52;;;;;;;0.35;68.27;92182.92;1813025;79;21173;-71
2021/03/22 11:51:00;;;;;;;5.10;3.60;;;;;;;0.17;67.92;92179.98;1855656;77;22039;-72
2021/03/22 11:53:29;;;;;;;5.05;4.00;;;;;;;-0.02;68.76;92194.98;1816834;77;21163;-72
2021/03/22 11:56:23;;;;;;;5.53;3.62;;;;;;;-0.14;69.82;92190.40;1813418;77;21044;-73
2021/03/22 11:58:50;;;;;;;4.83;3.98;;;;;;;-0.20;69.29;92181.90;1844750;76;21570;-72
2021/03/22 12:01:27;;;;;;;5.28;4.33;;;;;;;-0.34;69.42;92187.80;1842340;77;21045;-72
2021/03/22 12:04:11;;;;;;;6.22;4.10;;;;;;;-0.33;71.66;92193.34;1844782;77;21596;-73